Time;durP1;ratioP1;P1;durP2;ratioP2;P2;SDS_P1;SDS_P2;PMS_P1;PMS_P2;Temp;Humidity;BMP_temperature;BMP_pressure;BME280_temperature;BME280_humidity;BME280_pressure;Samples;Min_cycle;Max_cycle;Signal;HPM_P1;HPM_P2
2022/05/21 00:00:12;;;;;;;;;;;;;;;22.70;35.22;101286.47;2066280;28;789;-59
2022/05/21 00:01:12;;;;;;;;;;;;;;;22.69;36.02;101284.72;2066252;28;1126;-60
2022/05/21 00:02:12;;;;;;;;;;;;;;;22.68;36.03;101280.25;2066748;28;962;-59
2022/05/21 00:03:13;;;;;;;;;;;;;;;22.69;35.43;101283.84;2066290;28;764;-59
2022/05/21 00:04:13;;;;;;;;;;;;;;;22.67;36.24;101283.03;2066201;28;1001;-59
2022/05/21 00:05:14;;;;;;;;;;;;;;;22.66;35.69;101282.16;2066295;28;854;-60
2022/05/21 00:06:14;;;;;;;;;;;;;;;22.65;36.06;101280.41;2066241;28;797;-59
2022/05/21 00:07:14;;;;;;;;;;;;;;;22.64;35.87;101279.50;2058155;28;1482;-60
2022/05/21 00:08:14;;;;;;;;;;;;;;;22.65;35.98;101280.41;2058148;28;763;-60
2022/05/21 00:09:15;;;;;;;;;;;;;;;22.64;35.72;101275.94;2066140;28;966;-60
2022/05/21 00:10:16;;;;;;;;;;;;;;;22.63;35.79;101275.03;2066203;28;922;-59
2022/05/21 00:11:16;;;;;;;;;;;;;;;22.63;35.59;101274.16;2066259;28;1178;-61
2022/05/21 00:12:16;;;;;;;;;;;;;;;22.62;36.31;101278.66;2066213;28;1017;-60
2022/05/21 00:13:16;;;;;;;;;;;;;;;22.61;35.74;101276.91;2066178;28;830;-60
2022/05/21 00:14:17;;;;;;;;;;;;;;;22.61;35.68;101267.94;2067724;28;839;-59
2022/05/21 00:15:18;;;;;;;;;;;;;;;22.60;36.39;101268.88;2066365;28;1081;-60
2022/05/21 00:16:19;;;;;;;;;;;;;;;22.60;36.63;101275.13;2066039;28;962;-59
2022/05/21 00:17:19;;;;;;;;;;;;;;;22.59;36.54;101272.50;2066006;28;1389;-59
2022/05/21 00:18:19;;;;;;;;;;;;;;;22.58;36.01;101274.31;2066100;28;1389;-61
2022/05/21 00:19:20;;;;;;;;;;;;;;;22.58;36.17;101271.59;2066136;28;1906;-59
2022/05/21 00:21:39;;;;;;;;;;;;;;;22.57;35.67;101267.16;2066198;28;737;-60
2022/05/21 00:22:39;;;;;;;;;;;;;;;22.55;35.92;101263.63;2066144;28;864;-60
2022/05/21 00:23:40;;;;;;;;;;;;;;;22.55;36.12;101254.66;2066052;28;1145;-60
2022/05/21 00:24:40;;;;;;;;;;;;;;;22.55;36.56;101262.75;2066105;28;818;-60
2022/05/21 00:25:41;;;;;;;;;;;;;;;22.55;36.57;101260.06;2066098;28;875;-60
2022/05/21 00:26:41;;;;;;;;;;;;;;;22.54;35.91;101258.28;2065918;28;1010;-60
2022/05/21 00:27:42;;;;;;;;;;;;;;;22.54;36.75;101258.28;2066105;28;772;-60
2022/05/21 00:28:44;;;;;;;;;;;;;;;22.53;36.38;101261.91;2058899;28;947;-61
2022/05/21 00:29:44;;;;;;;;;;;;;;;22.51;36.73;101259.25;2073220;28;1068;-59
2022/05/21 00:30:44;;;;;;;;;;;;;;;22.52;36.68;101265.56;2083325;28;906;-60
2022/05/21 00:31:44;;;;;;;;;;;;;;;22.52;36.15;101266.41;2083207;28;793;-61
2022/05/21 00:32:44;;;;;;;;;;;;;;;22.51;36.71;101264.66;2083388;28;844;-60
2022/05/21 00:33:46;;;;;;;;;;;;;;;22.52;35.78;101262.84;2082617;28;970;-60
2022/05/21 00:34:46;;;;;;;;;;;;;;;22.50;36.57;101269.19;2082805;28;792;-61
2022/05/21 00:35:49;;;;;;;;;;;;;;;22.49;36.58;101261.13;2083240;28;899;-59
2022/05/21 00:36:49;;;;;;;;;;;;;;;22.49;36.13;101271.94;2083285;28;788;-60
2022/05/21 00:37:50;;;;;;;;;;;;;;;22.49;36.69;101261.13;2083204;28;1233;-61
2022/05/21 00:38:50;;;;;;;;;;;;;;;22.49;35.80;101261.13;2083248;28;1894;-60
2022/05/21 00:39:50;;;;;;;;;;;;;;;22.47;36.07;101260.28;2083222;28;1018;-60
2022/05/21 00:40:51;;;;;;;;;;;;;;;22.47;35.89;101257.59;2083266;28;833;-59
2022/05/21 00:41:51;;;;;;;;;;;;;;;22.46;35.92;101262.13;2083249;28;791;-60
2022/05/21 00:42:52;;;;;;;;;;;;;;;22.45;36.12;101251.38;2083236;28;799;-59
2022/05/21 00:43:52;;;;;;;;;;;;;;;22.45;36.59;101254.97;2083183;28;795;-60
2022/05/21 00:44:52;;;;;;;;;;;;;;;22.46;36.43;101255.84;2083701;28;922;-60
2022/05/21 00:45:52;;;;;;;;;;;;;;;22.45;36.07;101249.56;2082642;28;950;-59
2022/05/21 00:46:53;;;;;;;;;;;;;;;22.45;36.00;101254.06;2082589;28;780;-61
2022/05/21 00:47:53;;;;;;;;;;;;;;;22.46;36.88;101254.03;2083324;28;851;-59
2022/05/21 00:48:56;;;;;;;;;;;;;;;22.45;36.60;101254.97;2083163;28;816;-60
2022/05/21 00:49:56;;;;;;;;;;;;;;;22.45;36.76;101240.56;2082507;28;811;-60
2022/05/21 00:50:57;;;;;;;;;;;;;;;22.44;36.82;101238.81;2082570;28;795;-60
2022/05/21 00:52:00;;;;;;;;;;;;;;;22.44;36.79;101236.09;2083133;28;776;-59
2022/05/21 00:53:00;;;;;;;;;;;;;;;22.44;35.97;101236.09;2083155;28;843;-61
2022/05/21 00:54:01;;;;;;;;;;;;;;;22.44;36.97;101228.91;2083151;28;1037;-60
2022/05/21 00:55:04;;;;;;;;;;;;;;;22.42;36.61;101228.06;2083207;28;893;-60
2022/05/21 00:56:05;;;;;;;;;;;;;;;22.43;36.79;101226.22;2082436;28;976;-60
2022/05/21 00:57:35;;;;;;;;;;;;;;;22.42;36.09;101228.06;2082957;28;985;-60
2022/05/21 00:59:57;;;;;;;;;;;;;;;22.42;36.59;101219.06;2074551;28;954;-59
2022/05/21 01:00:58;;;;;;;;;;;;;;;22.40;36.37;101224.53;2073948;28;990;-61
2022/05/21 01:02:00;;;;;;;;;;;;;;;22.40;36.06;101221.81;2073914;28;851;-60
2022/05/21 01:03:00;;;;;;;;;;;;;;;22.41;36.06;101219.97;2073864;28;930;-59
2022/05/21 01:04:00;;;;;;;;;;;;;;;22.40;35.95;101224.53;2073960;28;1045;-60
2022/05/21 01:05:02;;;;;;;;;;;;;;;22.40;36.50;101223.63;2073989;28;851;-59
2022/05/21 01:06:03;;;;;;;;;;;;;;;22.40;36.75;101226.31;2073929;28;812;-60
2022/05/21 01:07:04;;;;;;;;;;;;;;;22.39;36.86;101232.66;2073856;28;986;-61
2022/05/21 01:08:05;;;;;;;;;;;;;;;22.38;36.89;101234.50;2073921;28;993;-60
2022/05/21 01:09:05;;;;;;;;;;;;;;;22.39;36.88;101235.34;2073900;28;1025;-60
2022/05/21 01:10:06;;;;;;;;;;;;;;;22.38;36.15;101234.50;2073855;28;891;-60
2022/05/21 01:11:09;;;;;;;;;;;;;;;22.38;36.36;101237.19;2073810;28;1382;-60
2022/05/21 01:12:10;;;;;;;;;;;;;;;22.38;36.41;101237.19;2073782;28;1194;-59
2022/05/21 01:13:12;;;;;;;;;;;;;;;22.39;36.14;101232.66;2077196;28;791;-60
2022/05/21 01:14:15;;;;;;;;;;;;;;;22.38;36.71;101230.88;2065940;28;1042;-61
2022/05/21 01:15:19;;;;;;;;;;;;;;;22.38;36.11;101225.50;2065993;28;831;-61
2022/05/21 01:16:19;;;;;;;;;;;;;;;22.36;36.82;101223.75;2073777;28;1191;-60
2022/05/21 01:17:20;;;;;;;;;;;;;;;22.38;36.89;101225.50;2073698;28;1082;-60
2022/05/21 01:18:22;;;;;;;;;;;;;;;22.38;36.34;101225.50;2073893;28;993;-60
2022/05/21 01:19:22;;;;;;;;;;;;;;;22.38;36.82;101225.50;2073647;28;1903;-60
2022/05/21 01:20:23;;;;;;;;;;;;;;;22.36;36.80;101226.47;2073825;28;969;-59
2022/05/21 01:21:23;;;;;;;;;;;;;;;22.36;36.22;101229.16;2065517;28;1157;-59
2022/05/21 01:22:27;;;;;;;;;;;;;;;22.35;36.31;101224.69;2065684;28;914;-59
2022/05/21 01:23:28;;;;;;;;;;;;;;;22.38;36.67;101225.50;2073753;28;1194;-59
2022/05/21 01:24:28;;;;;;;;;;;;;;;22.37;36.34;101219.22;2073814;28;867;-60
2022/05/21 01:25:29;;;;;;;;;;;;;;;22.36;36.04;101215.66;2073850;28;970;-60
2022/05/21 01:26:29;;;;;;;;;;;;;;;22.36;36.54;101218.34;2075481;28;788;-59
2022/05/21 01:27:29;;;;;;;;;;;;;;;22.38;36.19;101209.28;2073743;28;993;-60
2022/05/21 01:28:31;;;;;;;;;;;;;;;22.36;35.85;101204.88;2073812;28;1016;-59
2022/05/21 01:29:32;;;;;;;;;;;;;;;22.36;36.61;101204.88;2073810;28;900;-61
2022/05/21 01:30:48;;;;;;;;;;;;;;;22.37;35.91;101205.72;2073797;28;974;-60
2022/05/21 01:31:49;;;;;;;;;;;;;;;22.38;36.83;101206.59;2073780;28;1026;-59
2022/05/21 01:32:50;;;;;;;;;;;;;;;22.36;36.77;101202.16;2073780;28;914;-59
2022/05/21 01:33:50;;;;;;;;;;;;;;;22.36;36.17;101198.56;2073773;28;793;-60
2022/05/21 01:34:51;;;;;;;;;;;;;;;22.37;36.15;101205.72;2073743;28;796;-59
2022/05/21 01:35:51;;;;;;;;;;;;;;;22.35;36.10;101197.69;2079733;28;1342;-60
2022/05/21 01:36:51;;;;;;;;;;;;;;;22.35;36.54;101204.91;2082968;28;965;-60
2022/05/21 01:37:51;;;;;;;;;;;;;;;22.34;36.24;101198.63;2082933;28;827;-59
2022/05/21 01:38:51;;;;;;;;;;;;;;;22.35;35.92;101204.91;2083321;28;1965;-60
2022/05/21 01:39:52;;;;;;;;;;;;;;;22.34;36.66;101204.03;2082895;28;815;-60
2022/05/21 01:40:52;;;;;;;;;;;;;;;22.34;36.13;101198.63;2082871;28;855;-60
2022/05/21 01:41:52;;;;;;;;;;;;;;;22.32;35.99;101192.41;2082872;28;792;-60
2022/05/21 01:45:30;;;;;;;;;;;;;;;22.35;36.73;101204.91;2083080;28;621;-60
2022/05/21 01:46:30;;;;;;;;;;;;;;;22.34;36.51;101201.34;2082876;28;1025;-60
2022/05/21 01:47:34;;;;;;;;;;;;;;;22.35;36.27;101199.50;2082193;28;1184;-59
2022/05/21 01:48:35;;;;;;;;;;;;;;;22.35;35.84;101194.09;2082318;28;866;-59
2022/05/21 01:49:35;;;;;;;;;;;;;;;22.34;36.19;101198.63;2082776;28;843;-60
2022/05/21 01:50:36;;;;;;;;;;;;;;;22.34;35.88;101185.16;2082160;28;950;-60
2022/05/21 01:51:36;;;;;;;;;;;;;;;22.34;36.04;101200.44;2086044;28;982;-59
2022/05/21 01:52:37;;;;;;;;;;;;;;;22.33;36.16;101202.28;2084645;28;862;-59
2022/05/21 01:53:39;;;;;;;;;;;;;;;22.33;35.88;101195.97;2082798;28;784;-60
2022/05/21 01:54:39;;;;;;;;;;;;;;;22.33;35.84;101202.28;2082812;28;783;-59
2022/05/21 01:55:39;;;;;;;;;;;;;;;22.34;35.70;101203.13;2082815;28;859;-60
2022/05/21 01:56:39;;;;;;;;;;;;;;;22.33;36.64;101202.28;2082806;28;772;-61
2022/05/21 01:57:39;;;;;;;;;;;;;;;22.32;36.13;101200.50;2082826;28;1025;-60
2022/05/21 01:58:40;;;;;;;;;;;;;;;22.31;35.90;101198.75;2082731;28;2267;-60
2022/05/21 01:59:40;;;;;;;;;;;;;;;22.32;36.13;101194.22;2082127;28;1293;-60
2022/05/21 02:00:41;;;;;;;;;;;;;;;22.32;35.79;101200.50;2082241;28;787;-60
2022/05/21 02:01:41;;;;;;;;;;;;;;;22.32;35.87;101196.91;2082845;28;775;-60
2022/05/21 02:02:41;;;;;;;;;;;;;;;22.33;35.84;101198.69;2082834;28;827;-60
2022/05/21 02:03:41;;;;;;;;;;;;;;;22.32;36.00;101195.13;2082797;28;906;-60
2022/05/21 02:04:41;;;;;;;;;;;;;;;22.33;36.55;101195.97;2083944;28;911;-60
2022/05/21 02:05:44;;;;;;;;;;;;;;;22.32;36.27;101197.81;2082751;28;1032;-59
2022/05/21 02:06:45;;;;;;;;;;;;;;;22.32;35.83;101199.59;2082859;28;720;-60
2022/05/21 02:07:45;;;;;;;;;;;;;;;22.31;36.22;101203.25;2083612;28;969;-60
2022/05/21 02:08:45;;;;;;;;;;;;;;;22.31;36.12;101198.75;2084441;28;779;-60
2022/05/21 02:09:45;;;;;;;;;;;;;;;22.31;35.65;101197.84;2084425;28;1001;-59
2022/05/21 02:10:46;;;;;;;;;;;;;;;22.31;36.05;101204.16;2084351;28;1025;-59
2022/05/21 02:11:46;;;;;;;;;;;;;;;22.31;36.50;101198.75;2084474;28;791;-60
2022/05/21 02:12:46;;;;;;;;;;;;;;;22.29;36.47;101206.00;2084371;28;863;-59
2022/05/21 02:13:46;;;;;;;;;;;;;;;22.30;36.53;101202.38;2084412;28;752;-61
2022/05/21 02:14:47;;;;;;;;;;;;;;;22.30;36.54;101201.47;2084436;28;1033;-60
2022/05/21 02:15:48;;;;;;;;;;;;;;;22.30;36.10;101205.06;2083608;28;1482;-60
2022/05/21 02:16:48;;;;;;;;;;;;;;;22.30;36.60;101204.19;2083810;28;851;-60
2022/05/21 02:17:48;;;;;;;;;;;;;;;22.30;36.26;101207.78;2086027;28;1408;-60
2022/05/21 02:18:48;;;;;;;;;;;;;;;22.30;36.28;101207.78;2084317;28;1989;-60
2022/05/21 02:19:48;;;;;;;;;;;;;;;22.30;35.71;101206.88;2083736;28;1163;-59
2022/05/21 02:20:50;;;;;;;;;;;;;;;22.31;35.62;101203.25;2083724;28;965;-60
2022/05/21 02:21:50;;;;;;;;;;;;;;;22.32;35.86;101213.09;2084350;28;978;-60
2022/05/21 02:22:50;;;;;;;;;;;;;;;22.31;36.49;101208.66;2084419;28;886;-60
2022/05/21 02:23:50;;;;;;;;;;;;;;;22.30;35.63;101212.28;2084288;28;974;-61
2022/05/21 02:24:50;;;;;;;;;;;;;;;22.30;36.43;101214.97;2084284;28;1087;-60
2022/05/21 02:25:51;;;;;;;;;;;;;;;22.29;36.19;101208.72;2084279;28;848;-60
2022/05/21 02:26:51;;;;;;;;;;;;;;;22.29;35.80;101213.22;2084334;28;839;-61
2022/05/21 02:27:51;;;;;;;;;;;;;;;22.29;35.63;101215.91;2084217;28;1073;-60
2022/05/21 02:28:51;;;;;;;;;;;;;;;22.28;35.69;101215.03;2084373;28;1191;-60
2022/05/21 02:29:51;;;;;;;;;;;;;;;22.28;35.71;101220.44;2083942;28;1099;-60
2022/05/21 02:30:52;;;;;;;;;;;;;;;22.28;36.15;101216.84;2084258;28;767;-60
2022/05/21 02:31:53;;;;;;;;;;;;;;;22.28;35.66;101219.53;2084235;28;780;-59
2022/05/21 02:32:53;;;;;;;;;;;;;;;22.28;36.41;101212.34;2084186;28;824;-60
2022/05/21 02:33:53;;;;;;;;;;;;;;;22.28;36.40;101209.66;2084246;28;986;-60
2022/05/21 02:34:53;;;;;;;;;;;;;;;22.28;36.44;101212.34;2084180;28;990;-60
2022/05/21 02:35:53;;;;;;;;;;;;;;;22.29;36.03;101215.91;2084236;28;696;-60
2022/05/21 02:39:31;;;;;;;;;;;;;;;22.29;36.02;101205.13;2084191;28;1967;-60
2022/05/21 02:40:32;;;;;;;;;;;;;;;22.29;36.25;101205.13;2085699;28;1002;-61
2022/05/21 02:41:32;;;;;;;;;;;;;;;22.28;35.89;101203.34;2084184;28;811;-60
2022/05/21 02:42:45;;;;;;;;;;;;;;;22.28;35.61;101197.94;2083473;28;942;-60
2022/05/21 02:43:46;;;;;;;;;;;;;;;22.27;36.09;101199.78;2083738;28;783;-60
2022/05/21 02:44:46;;;;;;;;;;;;;;;22.27;36.34;101194.38;2083505;28;1202;-59
2022/05/21 02:45:46;;;;;;;;;;;;;;;22.26;35.89;101192.63;2083517;28;1013;-60
2022/05/21 02:46:47;;;;;;;;;;;;;;;22.26;36.05;101191.72;2084177;28;779;-61
2022/05/21 02:47:48;;;;;;;;;;;;;;;22.26;35.55;101189.03;2084099;28;1025;-60
2022/05/21 02:48:48;;;;;;;;;;;;;;;22.27;35.60;101190.78;2084192;28;835;-60
2022/05/21 02:49:49;;;;;;;;;;;;;;;22.26;35.77;101187.22;2084127;28;813;-60
2022/05/21 02:50:49;;;;;;;;;;;;;;;22.26;36.27;101186.34;2084121;28;1029;-60
2022/05/21 02:51:49;;;;;;;;;;;;;;;22.26;36.20;101189.94;2084080;28;784;-61
2022/05/21 02:52:50;;;;;;;;;;;;;;;22.26;35.61;101187.22;2084090;28;867;-60
2022/05/21 02:53:50;;;;;;;;;;;;;;;22.27;35.47;101185.41;2087457;28;879;-60
2022/05/21 02:54:50;;;;;;;;;;;;;;;22.27;36.27;101191.69;2084303;28;998;-60
2022/05/21 02:55:53;;;;;;;;;;;;;;;22.27;35.41;101186.28;2084090;28;784;-59
2022/05/21 02:56:53;;;;;;;;;;;;;;;22.27;35.64;101188.09;2084060;28;791;-60
2022/05/21 02:57:53;;;;;;;;;;;;;;;22.27;35.95;101182.69;2084017;28;823;-61
2022/05/21 02:58:53;;;;;;;;;;;;;;;22.27;35.47;101189.00;2084029;28;1955;-59
2022/05/21 02:59:54;;;;;;;;;;;;;;;22.26;35.77;101186.34;2084005;28;966;-60
2022/05/21 03:00:54;;;;;;;;;;;;;;;22.25;35.43;101187.25;2084011;28;981;-60
2022/05/21 03:01:54;;;;;;;;;;;;;;;22.25;35.79;101184.56;2084042;28;700;-60
2022/05/21 03:02:55;;;;;;;;;;;;;;;22.26;35.50;101183.63;2083991;28;933;-60
2022/05/21 03:03:55;;;;;;;;;;;;;;;22.25;35.55;101188.16;2084024;28;838;-59
2022/05/21 03:04:55;;;;;;;;;;;;;;;22.25;36.00;101189.97;2083964;28;969;-60
2022/05/21 03:05:55;;;;;;;;;;;;;;;22.26;36.38;101191.72;2084046;28;1032;-60
2022/05/21 03:06:56;;;;;;;;;;;;;;;22.25;36.06;101193.56;2084573;28;775;-59
2022/05/21 03:07:57;;;;;;;;;;;;;;;22.26;36.14;101194.44;2083340;28;1710;-60
2022/05/21 03:10:20;;;;;;;;;;;;;;;22.26;35.72;101187.22;2083971;28;664;-60
2022/05/21 03:11:21;;;;;;;;;;;;;;;22.25;35.29;101188.16;2083985;28;811;-60
2022/05/21 03:12:21;;;;;;;;;;;;;;;22.25;36.15;101189.97;2083973;28;958;-60
2022/05/21 03:13:21;;;;;;;;;;;;;;;22.24;35.75;101183.69;2083964;28;981;-60
2022/05/21 03:14:21;;;;;;;;;;;;;;;22.24;35.71;101181.00;2083947;28;1020;-59
2022/05/21 03:15:23;;;;;;;;;;;;;;;22.24;36.25;101189.09;2083921;28;883;-61
2022/05/21 03:16:23;;;;;;;;;;;;;;;22.23;35.98;101179.25;2083896;28;775;-60
2022/05/21 03:17:27;;;;;;;;;;;;;;;22.24;35.50;101180.09;2083727;28;1277;-60
2022/05/21 03:18:27;;;;;;;;;;;;;;;22.23;35.64;101176.53;2084062;28;976;-61
2022/05/21 03:19:28;;;;;;;;;;;;;;;22.23;35.61;101181.94;2083350;28;1972;-60
2022/05/21 03:20:28;;;;;;;;;;;;;;;22.23;35.51;101181.94;2083867;28;882;-59
2022/05/21 03:21:29;;;;;;;;;;;;;;;22.23;36.23;101181.03;2083863;28;855;-61
2022/05/21 03:22:29;;;;;;;;;;;;;;;22.23;35.56;101178.34;2083907;28;795;-61
2022/05/21 03:23:30;;;;;;;;;;;;;;;22.24;36.06;101183.69;2083906;28;736;-60
2022/05/21 03:24:30;;;;;;;;;;;;;;;22.24;35.53;101180.09;2083779;28;866;-61
2022/05/21 03:25:31;;;;;;;;;;;;;;;22.24;36.28;101181.00;2083877;28;989;-60
2022/05/21 03:26:31;;;;;;;;;;;;;;;22.23;36.14;101179.25;2083849;28;989;-59
2022/05/21 03:27:31;;;;;;;;;;;;;;;22.23;35.68;101176.53;2083843;28;800;-60
2022/05/21 03:28:31;;;;;;;;;;;;;;;22.23;35.64;101173.84;2083833;28;836;-60
2022/05/21 03:29:32;;;;;;;;;;;;;;;22.23;35.43;101178.34;2083796;28;1025;-60
2022/05/21 03:30:33;;;;;;;;;;;;;;;22.21;35.48;101162.22;2083821;28;788;-60
2022/05/21 03:31:33;;;;;;;;;;;;;;;22.22;36.31;101174.78;2083838;28;771;-60
2022/05/21 03:32:33;;;;;;;;;;;;;;;22.21;36.13;101165.78;2084748;28;1021;-60
2022/05/21 03:33:33;;;;;;;;;;;;;;;22.21;36.22;101164.91;2083780;28;855;-61
2022/05/21 03:34:36;;;;;;;;;;;;;;;22.22;35.59;101166.69;2083762;28;969;-60
2022/05/21 03:35:36;;;;;;;;;;;;;;;22.20;35.31;101153.22;2083762;28;811;-60
2022/05/21 03:36:36;;;;;;;;;;;;;;;22.21;36.06;101160.38;2083875;28;835;-59
2022/05/21 03:37:37;;;;;;;;;;;;;;;22.22;35.41;101166.69;2083706;28;1036;-60
2022/05/21 03:38:37;;;;;;;;;;;;;;;22.23;36.23;101164.84;2083745;28;797;-60
2022/05/21 03:39:37;;;;;;;;;;;;;;;22.22;35.48;101163.97;2083659;28;1959;-61
2022/05/21 03:40:38;;;;;;;;;;;;;;;22.22;35.65;101161.28;2083703;28;686;-59
2022/05/21 03:41:38;;;;;;;;;;;;;;;22.21;35.41;101160.38;2083685;28;781;-59
2022/05/21 03:42:38;;;;;;;;;;;;;;;22.21;35.57;101165.78;2083712;28;1033;-61
2022/05/21 03:43:38;;;;;;;;;;;;;;;22.21;35.84;101162.22;2083822;28;812;-60
2022/05/21 03:44:38;;;;;;;;;;;;;;;22.22;35.66;101161.28;2083714;28;820;-60
2022/05/21 03:45:38;;;;;;;;;;;;;;;22.20;36.19;101169.41;2083651;28;851;-60
2022/05/21 03:46:39;;;;;;;;;;;;;;;22.19;35.67;101166.78;2083620;28;883;-60
2022/05/21 03:47:41;;;;;;;;;;;;;;;22.19;35.50;101167.66;2083937;28;772;-59
2022/05/21 03:48:41;;;;;;;;;;;;;;;22.19;35.88;101166.78;2083837;28;755;-61
2022/05/21 03:49:41;;;;;;;;;;;;;;;22.20;35.77;101158.63;2083728;28;1017;-60
2022/05/21 03:50:42;;;;;;;;;;;;;;;22.19;36.06;101156.84;2083624;28;804;-61
2022/05/21 03:51:43;;;;;;;;;;;;;;;22.19;36.21;101156.84;2083603;28;862;-59
2022/05/21 03:52:43;;;;;;;;;;;;;;;22.19;35.51;101156.00;2083632;28;803;-59
2022/05/21 03:53:43;;;;;;;;;;;;;;;22.19;36.01;101159.56;2083635;28;1029;-61
2022/05/21 03:54:44;;;;;;;;;;;;;;;22.20;36.15;101152.38;2083625;28;819;-60
2022/05/21 03:55:44;;;;;;;;;;;;;;;22.20;36.08;101157.75;2083582;28;788;-60
2022/05/21 03:56:44;;;;;;;;;;;;;;;22.21;35.44;101159.53;2083578;28;922;-60
2022/05/21 03:57:44;;;;;;;;;;;;;;;22.21;35.29;101155.00;2083574;28;1048;-60
2022/05/21 03:58:44;;;;;;;;;;;;;;;22.21;36.08;101157.69;2083461;28;1890;-61
2022/05/21 03:59:45;;;;;;;;;;;;;;;22.21;35.94;101154.13;2083588;28;748;-60
2022/05/21 04:00:45;;;;;;;;;;;;;;;22.21;35.78;101159.53;2083644;28;779;-61
2022/05/21 04:01:45;;;;;;;;;;;;;;;22.84;34.64;101158.16;2083534;28;899;-60
2022/05/21 04:02:46;;;;;;;;;;;;;;;23.89;32.76;101155.84;2083549;28;854;-59
2022/05/21 04:03:46;;;;;;;;;;;;;;;24.57;31.30;101152.91;2082873;28;886;-59
2022/05/21 04:04:47;;;;;;;;;;;;;;;25.09;30.75;101157.72;2083522;28;1037;-61
2022/05/21 04:05:47;;;;;;;;;;;;;;;25.43;29.93;101156.09;2083641;28;791;-60
2022/05/21 04:06:47;;;;;;;;;;;;;;;25.75;29.59;101153.63;2082847;28;1188;-60
2022/05/21 04:07:48;;;;;;;;;;;;;;;25.96;28.81;101150.78;2082938;28;703;-60
2022/05/21 04:08:49;;;;;;;;;;;;;;;26.24;28.31;101145.78;2083505;28;839;-60
2022/05/21 04:09:49;;;;;;;;;;;;;;;26.49;27.50;101150.78;2082858;28;774;-60
2022/05/21 04:10:50;;;;;;;;;;;;;;;26.73;27.13;101148.56;2082852;28;795;-60
2022/05/21 04:11:50;;;;;;;;;;;;;;;26.81;27.79;101150.84;2091270;28;877;-60
2022/05/21 04:12:50;;;;;;;;;;;;;;;27.01;26.81;101146.19;2083501;28;858;-59
2022/05/21 04:13:50;;;;;;;;;;;;;;;27.36;26.95;101146.03;2083497;28;859;-60
2022/05/21 04:14:50;;;;;;;;;;;;;;;27.57;25.91;101151.19;2083469;28;756;-60
2022/05/21 04:15:51;;;;;;;;;;;;;;;27.76;25.63;101141.00;2083421;28;997;-61
2022/05/21 04:16:51;;;;;;;;;;;;;;;28.00;25.55;101145.06;2083430;28;854;-61
2022/05/21 04:17:51;;;;;;;;;;;;;;;27.99;25.89;101143.31;2084025;28;1287;-59
2022/05/21 04:18:53;;;;;;;;;;;;;;;28.10;25.51;101140.81;2083390;28;1985;-60
2022/05/21 04:19:55;;;;;;;;;;;;;;;28.16;25.00;101137.75;2083400;28;800;-60
2022/05/21 04:20:55;;;;;;;;;;;;;;;28.35;24.62;101126.59;2083364;28;800;-60
2022/05/21 04:21:55;;;;;;;;;;;;;;;28.54;24.81;101123.56;2083534;28;685;-60
2022/05/21 04:22:56;;;;;;;;;;;;;;;28.64;24.23;101121.13;2083385;28;1032;-60
2022/05/21 04:23:56;;;;;;;;;;;;;;;28.78;24.21;101124.84;2082688;28;804;-60
2022/05/21 04:24:56;;;;;;;;;;;;;;;29.04;24.27;101119.59;2082819;28;862;-61
2022/05/21 04:25:56;;;;;;;;;;;;;;;29.04;23.94;101123.16;2083348;28;978;-60
2022/05/21 04:26:56;;;;;;;;;;;;;;;29.04;24.36;101117.72;2083367;28;788;-60
2022/05/21 04:27:56;;;;;;;;;;;;;;;29.26;24.13;101119.03;2083468;28;982;-60
2022/05/21 04:28:57;;;;;;;;;;;;;;;29.39;23.76;101113.66;2083329;28;1052;-60
2022/05/21 04:29:57;;;;;;;;;;;;;;;29.39;23.74;101111.81;2083315;28;796;-61
2022/05/21 04:30:57;;;;;;;;;;;;;;;29.49;23.62;101114.78;2082546;28;1308;-60
2022/05/21 04:31:57;;;;;;;;;;;;;;;29.56;23.23;101110.69;2082776;28;989;-60
2022/05/21 04:32:58;;;;;;;;;;;;;;;29.58;23.21;101114.19;2083335;28;768;-60
2022/05/21 04:33:58;;;;;;;;;;;;;;;29.55;23.52;101114.38;2083306;28;969;-60
2022/05/21 04:34:59;;;;;;;;;;;;;;;29.61;23.55;101107.63;2083400;28;998;-60
2022/05/21 04:37:19;;;;;;;;;;;;;;;29.78;23.23;101111.06;2083438;28;1640;-61
2022/05/21 04:38:19;;;;;;;;;;;;;;;29.73;22.94;101109.50;2083271;28;815;-60
2022/05/21 04:39:20;;;;;;;;;;;;;;;29.62;22.96;101109.38;2083205;28;1906;-60
2022/05/21 04:40:21;;;;;;;;;;;;;;;29.68;23.29;101114.41;2082529;28;1589;-60
2022/05/21 04:41:22;;;;;;;;;;;;;;;29.87;23.09;101107.69;2082750;28;791;-59
2022/05/21 04:42:22;;;;;;;;;;;;;;;30.07;22.84;101102.72;2083256;28;819;-61
2022/05/21 04:43:22;;;;;;;;;;;;;;;30.26;22.88;101105.91;2083272;28;764;-60
2022/05/21 04:44:25;;;;;;;;;;;;;;;30.46;22.41;101109.06;2083261;28;855;-60
2022/05/21 04:45:25;;;;;;;;;;;;;;;30.47;22.52;101103.50;2084747;28;845;-61
2022/05/21 04:46:25;;;;;;;;;;;;;;;30.40;22.66;101102.19;2083217;28;843;-60
2022/05/21 04:47:26;;;;;;;;;;;;;;;30.57;22.42;101100.09;2082483;28;1405;-60
2022/05/21 04:48:26;;;;;;;;;;;;;;;30.49;22.64;101100.66;2082622;28;780;-60
2022/05/21 04:49:26;;;;;;;;;;;;;;;30.62;22.48;101103.41;2083224;28;902;-60
2022/05/21 04:50:26;;;;;;;;;;;;;;;30.78;22.24;101096.81;2083219;28;862;-60
2022/05/21 04:51:26;;;;;;;;;;;;;;;30.72;21.98;101093.56;2083144;28;863;-60
2022/05/21 04:52:27;;;;;;;;;;;;;;;30.77;22.34;101093.19;2083114;28;839;-60
2022/05/21 04:53:27;;;;;;;;;;;;;;;30.83;22.10;101095.47;2083328;28;1045;-60
2022/05/21 04:54:27;;;;;;;;;;;;;;;30.86;22.21;101094.41;2083148;28;762;-59
2022/05/21 04:55:28;;;;;;;;;;;;;;;30.97;22.17;101101.81;2083174;28;850;-60
2022/05/21 04:56:28;;;;;;;;;;;;;;;31.02;21.91;101094.13;2085345;28;779;-61
2022/05/21 04:57:28;;;;;;;;;;;;;;;30.98;22.04;101098.94;2083169;28;980;-60
2022/05/21 04:58:28;;;;;;;;;;;;;;;31.09;21.78;101087.22;2083141;28;1032;-60
2022/05/21 04:59:29;;;;;;;;;;;;;;;31.01;21.90;101086.91;2083061;28;1890;-60
2022/05/21 05:00:29;;;;;;;;;;;;;;;30.91;22.20;101087.59;2082442;28;895;-60
2022/05/21 05:01:30;;;;;;;;;;;;;;;31.15;21.72;101089.50;2082483;28;690;-60
2022/05/21 05:02:30;;;;;;;;;;;;;;;31.32;21.66;101080.03;2090732;28;803;-61
2022/05/21 05:03:30;;;;;;;;;;;;;;;31.45;21.45;101077.22;2083123;28;1042;-60
2022/05/21 05:04:31;;;;;;;;;;;;;;;31.45;21.24;101079.09;2083079;28;906;-60
2022/05/21 05:05:31;;;;;;;;;;;;;;;31.26;21.41;101085.09;2083137;28;1092;-61
2022/05/21 05:06:32;;;;;;;;;;;;;;;31.33;21.15;101091.84;2083160;28;673;-60
2022/05/21 05:07:34;;;;;;;;;;;;;;;31.08;21.43;101088.19;2083116;28;977;-61
2022/05/21 05:08:34;;;;;;;;;;;;;;;31.17;21.57;101082.06;2084180;28;862;-60
2022/05/21 05:09:38;;;;;;;;;;;;;;;31.29;21.67;101076.63;2083065;28;993;-60
2022/05/21 05:10:38;;;;;;;;;;;;;;;31.37;21.42;101090.63;2083075;28;775;-60
2022/05/21 05:11:38;;;;;;;;;;;;;;;31.41;21.14;101083.91;2083057;28;796;-60
2022/05/21 05:12:39;;;;;;;;;;;;;;;31.54;21.04;101080.25;2083199;28;700;-60
2022/05/21 05:13:39;;;;;;;;;;;;;;;31.40;21.04;101087.66;2083020;28;859;-60
2022/05/21 05:14:39;;;;;;;;;;;;;;;31.30;21.47;101081.13;2083033;28;820;-61
2022/05/21 05:15:40;;;;;;;;;;;;;;;31.35;21.55;101084.38;2083049;28;871;-60
2022/05/21 05:16:40;;;;;;;;;;;;;;;31.55;20.56;101085.59;2083085;28;865;-61
2022/05/21 05:17:40;;;;;;;;;;;;;;;31.62;20.74;101086.00;2082948;28;1095;-60
2022/05/21 05:18:40;;;;;;;;;;;;;;;31.55;20.72;101082.84;2082998;28;982;-59
2022/05/21 05:19:40;;;;;;;;;;;;;;;31.58;20.92;101082.63;2082920;28;1910;-61
2022/05/21 05:20:41;;;;;;;;;;;;;;;31.53;21.06;101089.44;2083133;28;914;-61
2022/05/21 05:21:42;;;;;;;;;;;;;;;31.62;20.80;101086.88;2083537;28;874;-60
2022/05/21 05:22:42;;;;;;;;;;;;;;;31.56;20.84;101086.47;2084284;28;936;-60
2022/05/21 05:23:42;;;;;;;;;;;;;;;31.67;20.62;101083.78;2083022;28;1041;-60
2022/05/21 05:24:42;;;;;;;;;;;;;;;31.70;20.50;101093.63;2083108;28;1057;-61
2022/05/21 05:25:43;;;;;;;;;;;;;;;31.72;21.12;101092.53;2082988;28;911;-61
2022/05/21 05:26:43;;;;;;;;;;;;;;;31.52;20.99;101084.97;2082969;28;823;-60
2022/05/21 05:27:45;;;;;;;;;;;;;;;31.50;21.17;101085.97;2082233;28;867;-60
2022/05/21 05:28:45;;;;;;;;;;;;;;;31.92;20.53;101088.25;2082394;28;1040;-60
2022/05/21 05:29:45;;;;;;;;;;;;;;;31.86;20.77;101085.09;2082922;28;772;-60